Time;durP1;ratioP1;P1;durP2;ratioP2;P2;SDS_P1;SDS_P2;PMS_P1;PMS_P2;Temp;Humidity;BMP_temperature;BMP_pressure;BME280_temperature;BME280_humidity;BME280_pressure;Samples;Min_cycle;Max_cycle;Signal;HPM_P1;HPM_P2
2022/06/25 00:00:39;;;;;;;0.00;0.00;;;19.90;99.90;;;;;;5000496;28;20454;-72
2022/06/25 00:03:06;;;;;;;0.00;0.00;;;19.90;99.90;;;;;;5000684;28;20453;-72
2022/06/25 00:05:34;;;;;;;0.00;0.00;;;19.90;99.90;;;;;;5001111;28;20462;-72
2022/06/25 00:08:02;;;;;;;0.00;0.00;;;19.90;99.90;;;;;;5000156;28;20469;-72
2022/06/25 00:10:31;;;;;;;0.00;0.00;;;20.00;99.90;;;;;;5000443;28;20442;-73
2022/06/25 00:12:58;;;;;;;0.00;0.00;;;20.00;99.90;;;;;;5000211;28;20446;-73
2022/06/25 00:15:26;;;;;;;0.00;0.00;;;20.00;99.90;;;;;;4999907;28;20481;-73
2022/06/25 00:17:54;;;;;;;0.00;0.00;;;20.00;99.90;;;;;;4999903;28;20465;-73
2022/06/25 00:20:22;;;;;;;0.00;0.00;;;19.90;99.90;;;;;;4999880;28;20545;-73
2022/06/25 00:22:49;;;;;;;0.00;0.00;;;20.00;99.90;;;;;;4999491;28;20722;-74
2022/06/25 00:25:17;;;;;;;0.00;0.00;;;20.00;99.90;;;;;;4999328;28;20750;-73
2022/06/25 00:27:47;;;;;;;0.00;0.00;;;20.00;99.90;;;;;;4999325;28;20493;-73
2022/06/25 00:30:14;;;;;;;0.00;0.00;;;19.90;99.90;;;;;;4999723;28;20812;-73
2022/06/25 00:32:44;;;;;;;0.00;0.00;;;19.90;99.90;;;;;;4999215;28;20452;-73
2022/06/25 00:35:12;;;;;;;0.00;0.00;;;19.90;99.90;;;;;;4999329;28;20478;-73
2022/06/25 00:37:40;;;;;;;0.00;0.00;;;19.90;99.90;;;;;;4998835;28;20860;-73
2022/06/25 00:40:09;;;;;;;0.00;0.00;;;19.90;99.90;;;;;;4999243;28;20544;-72
2022/06/25 00:42:37;;;;;;;0.00;0.00;;;19.90;99.90;;;;;;4998697;28;20442;-72
2022/06/25 00:45:07;;;;;;;0.00;0.00;;;20.00;99.90;;;;;;4999190;28;20456;-72
2022/06/25 00:47:35;;;;;;;0.00;0.00;;;20.00;99.90;;;;;;4998744;28;20454;-72
2022/06/25 00:50:05;;;;;;;0.00;0.00;;;20.10;99.90;;;;;;4998812;28;20438;-72
2022/06/25 00:52:34;;;;;;;0.00;0.00;;;20.10;99.90;;;;;;4998966;28;20446;-73
2022/06/25 00:55:07;;;;;;;0.00;0.00;;;20.10;99.90;;;;;;4999028;28;20481;-73
2022/06/25 00:57:35;;;;;;;0.00;0.00;;;20.20;99.90;;;;;;4998924;28;20458;-73
2022/06/25 01:00:08;;;;;;;0.00;0.00;;;20.20;99.90;;;;;;4998794;28;20450;-74
2022/06/25 01:02:37;;;;;;;0.00;0.00;;;20.20;99.90;;;;;;4998828;28;20472;-74
2022/06/25 01:05:06;;;;;;;0.00;0.00;;;20.20;99.90;;;;;;4999658;28;20794;-73
2022/06/25 01:07:35;;;;;;;0.00;0.00;;;20.20;99.90;;;;;;5000101;28;20739;-73
2022/06/25 01:10:06;;;;;;;0.00;0.00;;;20.10;99.90;;;;;;4998984;28;20473;-74
2022/06/25 01:12:34;;;;;;;0.00;0.00;;;20.10;99.90;;;;;;4998371;28;20453;-74
2022/06/25 01:15:03;;;;;;;0.00;0.00;;;20.10;99.90;;;;;;4998405;28;20485;-74
2022/06/25 01:17:35;;;;;;;0.00;0.00;;;20.10;99.90;;;;;;4998572;28;20501;-74
2022/06/25 01:20:05;;;;;;;0.00;0.00;;;20.00;99.90;;;;;;4998203;28;20456;-74
2022/06/25 01:22:34;;;;;;;0.00;0.00;;;20.00;99.90;;;;;;4997947;28;20720;-74
2022/06/25 01:25:02;;;;;;;0.00;0.00;;;20.00;99.90;;;;;;4997403;28;20545;-74
2022/06/25 01:27:29;;;;;;;0.00;0.00;;;19.90;99.90;;;;;;4998108;28;20454;-75
2022/06/25 01:29:58;;;;;;;0.00;0.00;;;19.90;99.90;;;;;;4998031;28;20541;-75
2022/06/25 01:36:13;;;;;;;0.00;0.00;;;19.90;99.90;;;;;;5003956;28;20747;-74
2022/06/25 01:38:42;;;;;;;0.00;0.00;;;19.80;99.90;;;;;;4998666;28;20430;-74
2022/06/25 01:41:10;;;;;;;0.00;0.00;;;19.80;99.90;;;;;;4997660;28;20430;-74
2022/06/25 01:43:39;;;;;;;0.00;0.00;;;19.80;99.90;;;;;;4997999;28;20815;-75
2022/06/25 01:46:08;;;;;;;0.00;0.00;;;19.70;99.90;;;;;;4997769;28;20458;-75
2022/06/25 01:48:36;;;;;;;0.00;0.00;;;19.70;99.90;;;;;;4997755;28;20517;-74
2022/06/25 01:51:04;;;;;;;0.00;0.00;;;19.70;99.90;;;;;;4997137;28;20452;-75
2022/06/25 01:53:32;;;;;;;0.00;0.00;;;19.70;99.90;;;;;;4997586;28;20433;-74
2022/06/25 01:56:02;;;;;;;0.00;0.00;;;19.70;99.90;;;;;;4997736;28;20477;-74
2022/06/25 01:58:30;;;;;;;0.00;0.00;;;19.70;99.90;;;;;;5008679;28;20850;-75
2022/06/25 02:00:58;;;;;;;0.00;0.00;;;19.70;99.90;;;;;;4997495;28;20464;-74
2022/06/25 02:03:26;;;;;;;0.00;0.00;;;19.60;99.90;;;;;;4997556;28;20979;-75
2022/06/25 02:06:00;;;;;;;0.00;0.00;;;19.60;99.90;;;;;;4997508;28;20441;-74
2022/06/25 02:08:31;;;;;;;0.00;0.00;;;19.60;99.90;;;;;;4998201;28;20458;-74
2022/06/25 02:11:02;;;;;;;0.00;0.00;;;19.60;99.90;;;;;;4997626;28;20438;-74
2022/06/25 02:13:30;;;;;;;0.00;0.00;;;19.60;99.90;;;;;;4997907;28;20945;-74
2022/06/25 02:15:58;;;;;;;0.00;0.00;;;19.60;99.90;;;;;;4998001;28;20484;-74
2022/06/25 02:22:04;;;;;;;0.00;0.00;;;19.50;99.90;;;;;;5946743;23;20474;-92
2022/06/25 02:24:32;;;;;;;0.00;0.00;;;19.50;99.90;;;;;;4993281;28;20471;-91
2022/06/25 02:27:01;;;;;;;0.00;0.00;;;19.40;99.90;;;;;;4991579;28;20711;-91
2022/06/25 02:29:29;;;;;;;0.00;0.00;;;19.40;99.90;;;;;;4992244;28;20446;-90
2022/06/25 02:32:11;;;;;;;0.00;0.00;;;19.30;99.90;;;;;;4991423;28;20484;-91
2022/06/25 02:34:39;;;;;;;0.00;0.00;;;19.30;99.90;;;;;;4991724;28;20796;-91
2022/06/25 02:37:07;;;;;;;0.00;0.00;;;19.30;99.90;;;;;;4992108;28;20598;-90
2022/06/25 02:39:35;;;;;;;0.00;0.00;;;19.30;99.90;;;;;;4990926;28;20533;-90
2022/06/25 02:42:04;;;;;;;0.00;0.00;;;19.20;99.90;;;;;;4988942;28;20462;-91
2022/06/25 02:44:32;;;;;;;0.00;0.00;;;19.20;99.90;;;;;;4988779;28;20469;-90
2022/06/25 02:47:00;;;;;;;0.00;0.00;;;19.20;99.90;;;;;;4991237;28;20685;-89
2022/06/25 02:49:28;;;;;;;0.00;0.00;;;19.20;99.90;;;;;;4990851;28;20462;-90
2022/06/25 02:51:56;;;;;;;0.00;0.00;;;19.20;99.90;;;;;;4989055;28;20932;-91
2022/06/25 02:54:24;;;;;;;0.00;0.00;;;19.20;99.90;;;;;;4990925;28;20547;-92
2022/06/25 02:59:43;;;;;;;0.00;0.00;;;19.20;99.90;;;;;;4990640;28;20453;-91
2022/06/25 03:02:10;;;;;;;0.00;0.00;;;19.10;99.90;;;;;;4989795;28;20451;-89
2022/06/25 03:04:39;;;;;;;0.00;0.00;;;19.10;99.90;;;;;;4990036;28;20521;-90
2022/06/25 03:07:07;;;;;;;0.00;0.00;;;19.10;99.90;;;;;;4992762;28;20453;-91
2022/06/25 03:09:35;;;;;;;0.00;0.00;;;19.00;99.90;;;;;;4993758;28;20455;-91
2022/06/25 03:12:03;;;;;;;0.00;0.00;;;19.00;99.90;;;;;;4996391;28;20552;-90
2022/06/25 03:14:31;;;;;;;0.00;0.00;;;19.00;99.90;;;;;;4990021;28;20479;-92
2022/06/25 03:17:01;;;;;;;0.00;0.00;;;19.00;99.90;;;;;;4990049;28;20544;-91
2022/06/25 03:19:29;;;;;;;0.00;0.00;;;19.00;99.90;;;;;;4988849;28;20609;-90
2022/06/25 03:21:57;;;;;;;0.00;0.00;;;19.00;99.90;;;;;;4989313;28;20539;-90
2022/06/25 03:24:25;;;;;;;0.00;0.00;;;18.90;99.90;;;;;;4990868;28;20697;-91
2022/06/25 03:26:52;;;;;;;0.00;0.00;;;18.90;99.90;;;;;;4991034;28;20529;-91
2022/06/25 03:29:21;;;;;;;0.00;0.00;;;18.90;99.90;;;;;;4991611;28;20503;-92
2022/06/25 03:31:49;;;;;;;0.00;0.00;;;18.90;99.90;;;;;;4991666;28;20508;-92
2022/06/25 03:34:18;;;;;;;0.00;0.00;;;18.90;99.90;;;;;;4993977;28;20475;-92
2022/06/25 03:36:47;;;;;;;0.00;0.00;;;18.90;99.90;;;;;;4992196;28;20545;-92
2022/06/25 03:39:14;;;;;;;0.00;0.00;;;18.90;99.90;;;;;;4994279;28;20470;-90
2022/06/25 03:41:42;;;;;;;0.00;0.00;;;18.90;99.90;;;;;;4990328;28;20485;-89
2022/06/25 03:44:12;;;;;;;0.00;0.00;;;18.90;99.90;;;;;;4992413;28;20505;-88
2022/06/25 03:46:40;;;;;;;0.00;0.00;;;18.90;99.90;;;;;;4993945;28;20533;-90
2022/06/25 03:49:08;;;;;;;0.00;0.00;;;18.90;99.90;;;;;;5000303;28;20454;-90
2022/06/25 03:51:38;;;;;;;0.00;0.00;;;18.90;99.90;;;;;;5002116;28;20529;-89
2022/06/25 03:54:06;;;;;;;0.00;0.00;;;18.90;99.90;;;;;;5003169;28;20478;-89
2022/06/25 03:56:34;;;;;;;0.00;0.00;;;18.90;99.90;;;;;;5003184;28;20475;-92
2022/06/25 03:59:05;;;;;;;0.00;0.00;;;18.90;99.90;;;;;;4999296;28;20603;-90
2022/06/25 04:01:33;;;;;;;0.00;0.00;;;18.80;99.90;;;;;;5004031;28;20450;-93
2022/06/25 04:04:02;;;;;;;0.00;0.00;;;18.90;99.90;;;;;;5002198;28;20494;-92
2022/06/25 04:06:30;;;;;;;0.00;0.00;;;18.90;99.90;;;;;;5002271;28;20415;-93
2022/06/25 04:09:00;;;;;;;0.00;0.00;;;18.90;99.90;;;;;;5004907;28;20749;-93
2022/06/25 04:11:28;;;;;;;0.00;0.00;;;19.00;99.90;;;;;;5009987;28;20482;-92
2022/06/25 04:13:56;;;;;;;0.00;0.00;;;19.00;99.90;;;;;;4998265;28;20475;-93
2022/06/25 04:16:24;;;;;;;0.00;0.00;;;19.00;99.90;;;;;;4999597;28;20482;-91
2022/06/25 04:18:53;;;;;;;0.00;0.00;;;19.00;99.90;;;;;;4996981;28;20435;-93
2022/06/25 04:21:21;;;;;;;0.00;0.00;;;19.00;99.90;;;;;;4997225;28;20477;-92
2022/06/25 04:23:49;;;;;;;0.00;0.00;;;19.10;99.90;;;;;;5002813;28;20712;-92
2022/06/25 04:26:19;;;;;;;0.00;0.00;;;19.10;99.90;;;;;;4989846;28;20542;-91
2022/06/25 04:29:04;;;;;;;0.00;0.00;;;19.10;99.90;;;;;;4988362;28;20469;-92
2022/06/25 04:31:32;;;;;;;0.00;0.00;;;19.10;99.90;;;;;;4987998;28;21035;-91
2022/06/25 04:34:01;;;;;;;0.00;0.00;;;19.10;99.90;;;;;;4993701;28;21000;-92
2022/06/25 04:36:29;;;;;;;0.00;0.00;;;19.10;99.90;;;;;;4986060;28;20480;-91
2022/06/25 04:38:57;;;;;;;0.00;0.00;;;19.20;99.90;;;;;;4982613;28;20444;-91
2022/06/25 04:41:28;;;;;;;0.00;0.00;;;19.30;99.90;;;;;;4993979;28;20505;-91
2022/06/25 04:43:56;;;;;;;0.00;0.00;;;19.20;99.90;;;;;;4993599;28;20491;-93
2022/06/25 04:46:24;;;;;;;0.00;0.00;;;19.20;99.90;;;;;;4995359;28;20444;-92
2022/06/25 04:48:51;;;;;;;0.00;0.00;;;19.30;99.90;;;;;;5001153;28;20459;-92
2022/06/25 04:51:19;;;;;;;0.00;0.00;;;19.30;99.90;;;;;;5008942;28;20535;-92
2022/06/25 04:53:56;;;;;;;0.00;0.00;;;19.30;99.90;;;;;;5018521;28;20460;-92
2022/06/25 04:56:30;;;;;;;0.00;0.00;;;19.30;99.90;;;;;;5006174;28;20481;-92
2022/06/25 04:58:59;;;;;;;0.00;0.00;;;19.40;99.90;;;;;;4991412;28;20883;-92
2022/06/25 05:01:27;;;;;;;0.00;0.00;;;19.40;99.90;;;;;;5006584;28;20597;-92
2022/06/25 05:03:58;;;;;;;0.00;0.00;;;19.40;99.90;;;;;;4994044;28;20471;-92
2022/06/25 05:06:26;;;;;;;0.00;0.00;;;19.50;99.90;;;;;;4998835;28;20710;-92
2022/06/25 05:08:54;;;;;;;0.00;0.00;;;19.60;99.90;;;;;;5016723;28;21177;-92
2022/06/25 05:11:25;;;;;;;0.00;0.00;;;19.60;99.90;;;;;;4993781;28;20765;-91
2022/06/25 05:13:54;;;;;;;0.00;0.00;;;19.60;99.90;;;;;;4977082;28;20495;-95
2022/06/25 05:16:23;;;;;;;0.00;0.00;;;19.60;99.90;;;;;;4991948;28;20459;-96
2022/06/25 05:18:52;;;;;;;0.00;0.00;;;19.70;99.90;;;;;;4991671;28;20448;-96
2022/06/25 05:21:31;;;;;;;0.00;0.00;;;19.70;99.90;;;;;;4992615;28;20487;-96
2022/06/25 05:24:02;;;;;;;0.00;0.00;;;19.70;99.90;;;;;;4992363;28;20463;-96
2022/06/25 05:26:30;;;;;;;0.00;0.00;;;19.80;99.90;;;;;;4991572;28;20438;-93
2022/06/25 05:29:02;;;;;;;0.00;0.00;;;19.90;99.90;;;;;;4990251;28;20510;-94
2022/06/25 05:31:30;;;;;;;0.00;0.00;;;19.90;99.90;;;;;;4987699;28;20479;-94
2022/06/25 05:33:59;;;;;;;0.00;0.00;;;20.10;99.90;;;;;;4988982;28;20677;-94
2022/06/25 05:36:27;;;;;;;0.00;0.00;;;20.30;99.90;;;;;;4989846;28;20483;-94
2022/06/25 05:38:56;;;;;;;0.00;0.00;;;20.40;99.90;;;;;;4991232;28;20452;-95
2022/06/25 05:41:27;;;;;;;0.00;0.00;;;20.50;99.90;;;;;;4992209;28;20452;-95
2022/06/25 05:44:01;;;;;;;0.00;0.00;;;20.40;99.90;;;;;;4992936;28;20476;-96
2022/06/25 05:46:30;;;;;;;0.00;0.00;;;20.50;99.90;;;;;;4992040;28;20518;-94
2022/06/25 05:49:00;;;;;;;0.00;0.00;;;20.50;99.90;;;;;;4992684;28;20444;-96
2022/06/25 05:54:17;;;;;;;0.00;0.00;;;20.50;99.90;;;;;;4967412;28;20459;-76
2022/06/25 05:56:44;;;;;;;0.00;0.00;;;20.60;99.90;;;;;;4968289;28;20487;-77
2022/06/25 05:59:16;;;;;;;0.00;0.00;;;20.70;99.90;;;;;;4967497;28;21115;-77
2022/06/25 06:01:44;;;;;;;0.00;0.00;;;20.70;99.90;;;;;;4969802;28;20512;-77
2022/06/25 06:04:12;;;;;;;0.00;0.00;;;20.80;99.90;;;;;;4967985;28;20459;-76
2022/06/25 06:06:43;;;;;;;0.00;0.00;;;20.90;99.90;;;;;;4978112;28;20471;-77
2022/06/25 06:09:14;;;;;;;0.00;0.00;;;21.00;99.90;;;;;;4976650;28;21103;-77
2022/06/25 06:11:42;;;;;;;0.00;0.00;;;21.00;99.90;;;;;;4978472;28;20516;-77
2022/06/25 06:14:10;;;;;;;0.00;0.00;;;21.10;99.90;;;;;;4977365;28;20458;-78
2022/06/25 06:16:40;;;;;;;0.00;0.00;;;21.30;99.90;;;;;;4977268;28;20476;-78
2022/06/25 06:19:08;;;;;;;0.00;0.00;;;21.40;99.90;;;;;;4978067;28;20448;-77
2022/06/25 06:21:36;;;;;;;0.00;0.00;;;21.50;99.90;;;;;;4967793;28;20459;-76
2022/06/25 06:24:04;;;;;;;0.00;0.00;;;21.70;99.90;;;;;;4963004;28;20468;-74
2022/06/25 06:26:32;;;;;;;0.00;0.00;;;21.90;99.90;;;;;;4960955;28;20580;-74
2022/06/25 06:29:00;;;;;;;0.00;0.00;;;22.00;99.90;;;;;;4962653;28;20571;-73
2022/06/25 06:31:28;;;;;;;0.00;0.00;;;22.10;99.90;;;;;;4967334;28;20449;-74
2022/06/25 06:34:01;;;;;;;0.00;0.00;;;22.30;99.90;;;;;;4968828;28;21161;-73
2022/06/25 06:36:31;;;;;;;0.00;0.00;;;22.40;99.90;;;;;;4967680;28;20474;-74
2022/06/25 06:38:59;;;;;;;0.00;0.00;;;22.40;99.90;;;;;;4969819;28;21062;-74
2022/06/25 06:41:27;;;;;;;0.00;0.00;;;22.50;99.90;;;;;;4968784;28;20456;-74
2022/06/25 06:43:55;;;;;;;0.00;0.00;;;22.60;99.90;;;;;;4968482;28;20455;-74
2022/06/25 06:46:23;;;;;;;0.00;0.00;;;22.60;99.90;;;;;;4967681;28;20460;-74
2022/06/25 06:48:50;;;;;;;0.00;0.00;;;22.60;99.90;;;;;;4966774;28;20533;-75
2022/06/25 06:51:20;;;;;;;0.00;0.00;;;22.70;99.90;;;;;;4961955;28;20476;-74
2022/06/25 06:53:47;;;;;;;0.00;0.00;;;22.70;99.90;;;;;;4958848;28;20509;-74
2022/06/25 06:56:15;;;;;;;0.00;0.00;;;22.80;99.90;;;;;;4958844;28;20487;-74
2022/06/25 06:58:43;;;;;;;0.00;0.00;;;22.90;99.90;;;;;;4958801;28;21135;-74
2022/06/25 07:01:11;;;;;;;0.00;0.00;;;22.90;99.90;;;;;;4958569;28;20692;-74
2022/06/25 07:03:39;;;;;;;0.00;0.00;;;23.00;99.90;;;;;;4957959;28;20482;-74
2022/06/25 07:06:06;;;;;;;0.00;0.00;;;23.10;99.90;;;;;;4958489;28;20977;-74
2022/06/25 07:08:36;;;;;;;0.00;0.00;;;23.20;99.90;;;;;;4958270;28;20543;-74
2022/06/25 07:11:28;;;;;;;0.00;0.00;;;23.30;99.90;;;;;;4965353;28;20449;-73
2022/06/25 07:13:53;;;;;;;0.00;0.00;;;23.30;99.90;;;;;;4961714;28;21103;-73
2022/06/25 07:16:21;;;;;;;0.00;0.00;;;23.40;99.90;;;;;;4961863;28;20514;-73
2022/06/25 07:18:50;;;;;;;0.00;0.00;;;23.50;99.90;;;;;;4961618;28;21221;-73
2022/06/25 07:21:18;;;;;;;0.00;0.00;;;23.60;99.90;;;;;;4959513;28;20485;-73
2022/06/25 07:23:48;;;;;;;0.00;0.00;;;23.70;99.90;;;;;;4961289;28;20538;-74
2022/06/25 07:26:16;;;;;;;0.00;0.00;;;23.80;99.90;;;;;;4959584;28;21122;-73
2022/06/25 07:28:43;;;;;;;0.00;0.00;;;23.80;99.90;;;;;;4958961;28;20479;-73
2022/06/25 07:31:11;;;;;;;0.00;0.00;;;23.90;99.90;;;;;;4962464;28;20465;-75
2022/06/25 07:33:39;;;;;;;0.00;0.00;;;23.90;99.90;;;;;;4962766;28;21005;-76
2022/06/25 07:36:08;;;;;;;0.00;0.00;;;24.00;99.90;;;;;;4962919;28;20464;-73
2022/06/25 07:38:35;;;;;;;0.00;0.00;;;24.00;99.90;;;;;;4963350;28;21061;-74
2022/06/25 07:41:05;;;;;;;0.00;0.00;;;24.10;99.90;;;;;;4963874;28;20451;-74
2022/06/25 07:43:34;;;;;;;0.00;0.00;;;24.20;99.90;;;;;;4964097;28;20969;-75
2022/06/25 07:46:04;;;;;;;0.00;0.00;;;24.30;99.90;;;;;;4962631;28;20476;-75
2022/06/25 07:48:33;;;;;;;0.00;0.00;;;24.30;99.90;;;;;;4962301;28;21000;-77
2022/06/25 07:53:55;;;;;;;0.00;0.00;;;24.40;99.90;;;;;;4963477;28;20492;-77
2022/06/25 07:56:25;;;;;;;0.00;0.00;;;24.50;99.90;;;;;;4964658;28;20474;-77
2022/06/25 07:59:01;;;;;;;0.00;0.00;;;24.50;99.90;;;;;;4963551;28;20492;-76
2022/06/25 08:01:29;;;;;;;0.00;0.00;;;24.60;99.90;;;;;;4961539;28;20533;-76
2022/06/25 08:03:57;;;;;;;0.00;0.00;;;24.60;99.90;;;;;;4961680;28;20458;-76
2022/06/25 08:06:25;;;;;;;0.00;0.00;;;24.60;99.90;;;;;;4961103;28;20525;-76
2022/06/25 08:08:53;;;;;;;0.00;0.00;;;24.70;99.90;;;;;;4961929;28;20450;-76
2022/06/25 08:11:21;;;;;;;0.00;0.00;;;24.70;99.90;;;;;;4961966;28;20450;-76
2022/06/25 08:13:50;;;;;;;0.00;0.00;;;24.70;99.90;;;;;;4961136;28;21090;-76
2022/06/25 08:16:19;;;;;;;0.00;0.00;;;24.90;99.90;;;;;;4961211;28;20507;-76
2022/06/25 08:18:47;;;;;;;0.00;0.00;;;25.00;99.90;;;;;;4961713;28;20557;-76
2022/06/25 08:21:15;;;;;;;0.00;0.00;;;25.00;99.90;;;;;;4960888;28;20462;-75
2022/06/25 08:23:43;;;;;;;0.00;0.00;;;25.10;99.90;;;;;;4960051;28;20972;-77
2022/06/25 08:26:11;;;;;;;0.00;0.00;;;25.20;99.90;;;;;;4961760;28;20484;-77
2022/06/25 08:28:39;;;;;;;0.00;0.00;;;25.20;99.90;;;;;;4960749;28;20465;-76
2022/06/25 08:31:08;;;;;;;0.00;0.00;;;25.20;99.90;;;;;;4963158;28;20848;-76
2022/06/25 08:33:36;;;;;;;0.00;0.00;;;25.30;99.90;;;;;;4962271;28;20450;-78
2022/06/25 08:36:05;;;;;;;0.00;0.00;;;25.30;99.90;;;;;;4961363;28;21229;-77
2022/06/25 08:38:34;;;;;;;0.00;0.00;;;25.40;99.90;;;;;;4960413;28;20479;-76
2022/06/25 08:41:02;;;;;;;0.00;0.00;;;25.40;99.90;;;;;;4966579;28;20454;-76
2022/06/25 08:43:30;;;;;;;0.00;0.00;;;25.50;99.90;;;;;;4972660;28;20534;-77
2022/06/25 08:45:58;;;;;;;0.00;0.00;;;25.50;99.90;;;;;;4965116;28;20436;-76
2022/06/25 08:48:32;;;;;;;0.00;0.00;;;25.50;99.90;;;;;;4973804;28;20501;-76
2022/06/25 08:51:01;;;;;;;0.00;0.00;;;25.50;99.90;;;;;;4961068;28;20451;-76
2022/06/25 08:53:33;;;;;;;0.00;0.00;;;25.60;99.90;;;;;;4954480;28;20684;-76
2022/06/25 08:56:02;;;;;;;0.00;0.00;;;25.60;99.90;;;;;;4956181;28;20551;-75
2022/06/25 08:58:30;;;;;;;0.00;0.00;;;25.70;99.90;;;;;;4959919;28;20524;-74
2022/06/25 09:00:58;;;;;;;0.00;0.00;;;25.80;99.90;;;;;;4960373;28;20511;-77
2022/06/25 09:03:27;;;;;;;0.00;0.00;;;26.00;99.90;;;;;;4962420;28;20452;-76
2022/06/25 09:05:55;;;;;;;0.00;0.00;;;26.30;99.90;;;;;;4961181;28;20454;-75
2022/06/25 09:08:23;;;;;;;0.00;0.00;;;26.50;99.90;;;;;;4961669;28;20456;-76
2022/06/25 09:10:55;;;;;;;0.00;0.00;;;26.70;99.90;;;;;;4962312;28;20602;-76
2022/06/25 09:13:25;;;;;;;0.00;0.00;;;26.80;99.90;;;;;;4961961;28;20471;-75
2022/06/25 09:15:53;;;;;;;0.00;0.00;;;27.00;99.90;;;;;;4962809;28;20435;-76
2022/06/25 09:18:21;;;;;;;0.00;0.00;;;27.10;99.90;;;;;;4960332;28;20481;-76
2022/06/25 09:20:58;;;;;;;0.00;0.00;;;27.20;99.90;;;;;;4960443;28;20475;-77
2022/06/25 09:23:27;;;;;;;0.00;0.00;;;27.30;99.90;;;;;;4960622;28;20544;-75
2022/06/25 09:26:05;;;;;;;0.00;0.00;;;27.40;99.90;;;;;;4960003;28;20519;-78
2022/06/25 09:28:34;;;;;;;0.00;0.00;;;27.60;99.90;;;;;;4962321;28;21061;-77
2022/06/25 09:31:02;;;;;;;0.00;0.00;;;27.80;99.90;;;;;;4960745;28;20457;-78
2022/06/25 09:33:33;;;;;;;0.00;0.00;;;28.00;99.90;;;;;;4959125;28;20540;-77
2022/06/25 09:36:03;;;;;;;0.00;0.00;;;28.10;99.90;;;;;;4962008;28;20470;-80
2022/06/25 09:38:32;;;;;;;0.00;0.00;;;28.20;99.90;;;;;;4960464;28;20486;-78
2022/06/25 09:41:01;;;;;;;0.00;0.00;;;28.40;99.90;;;;;;4959897;28;20509;-79
2022/06/25 09:43:35;;;;;;;0.00;0.00;;;28.50;99.90;;;;;;4960325;28;20566;-76
2022/06/25 09:46:05;;;;;;;0.00;0.00;;;28.50;99.90;;;;;;4956559;28;20541;-77
2022/06/25 09:48:35;;;;;;;0.00;0.00;;;28.60;99.90;;;;;;4960352;28;21135;-79
2022/06/25 09:51:10;;;;;;;0.00;0.00;;;28.70;99.90;;;;;;4962777;28;21088;-78
2022/06/25 09:53:46;;;;;;;0.00;0.00;;;28.70;99.90;;;;;;4962451;28;20524;-76
2022/06/25 09:56:15;;;;;;;0.00;0.00;;;28.70;99.90;;;;;;4962101;28;20538;-78
2022/06/25 09:58:44;;;;;;;0.00;0.00;;;28.60;99.90;;;;;;4960944;28;20486;-78
2022/06/25 10:01:17;;;;;;;0.00;0.00;;;28.40;99.90;;;;;;4960667;28;20585;-77
2022/06/25 10:03:48;;;;;;;0.00;0.00;;;28.40;99.90;;;;;;4960733;28;20454;-76
2022/06/25 10:06:19;;;;;;;0.00;0.00;;;28.30;99.90;;;;;;4962053;28;20546;-77
2022/06/25 10:08:49;;;;;;;0.00;0.00;;;28.30;99.90;;;;;;4960854;28;20475;-79
2022/06/25 10:11:19;;;;;;;0.00;0.00;;;28.40;99.90;;;;;;4960172;28;20542;-80
2022/06/25 10:13:48;;;;;;;0.00;0.00;;;28.40;99.90;;;;;;4961673;28;20449;-78
2022/06/25 10:16:18;;;;;;;0.00;0.00;;;28.40;99.90;;;;;;4960582;28;20458;-78
2022/06/25 10:18:47;;;;;;;0.00;0.00;;;28.30;99.90;;;;;;4959903;28;20478;-77
2022/06/25 10:21:15;;;;;;;0.00;0.00;;;28.20;99.90;;;;;;4959172;28;20447;-78
2022/06/25 10:23:46;;;;;;;0.00;0.00;;;28.20;99.90;;;;;;4959161;28;20542;-75
2022/06/25 10:26:14;;;;;;;0.00;0.00;;;28.10;99.90;;;;;;4960214;28;20661;-77
2022/06/25 10:28:43;;;;;;;0.00;0.00;;;28.00;99.90;;;;;;4959644;28;20443;-77
2022/06/25 10:31:14;;;;;;;0.00;0.00;;;28.00;99.90;;;;;;4958521;28;20492;-74
2022/06/25 10:33:53;;;;;;;0.00;0.00;;;28.10;99.90;;;;;;4959370;28;20470;-77
2022/06/25 10:36:40;;;;;;;0.00;0.00;;;28.30;99.90;;;;;;4940416;28;21171;-78
2022/06/25 10:39:36;;;;;;;0.00;0.00;;;28.40;99.90;;;;;;4955700;28;20474;-78
2022/06/25 10:45:51;;;;;;;0.00;0.00;;;28.30;99.90;;;;;;4960550;28;20451;-78
2022/06/25 10:48:22;;;;;;;0.00;0.00;;;28.20;99.90;;;;;;4965538;28;21071;-79
2022/06/25 10:50:51;;;;;;;0.00;0.00;;;28.30;99.90;;;;;;4963732;28;20446;-78
2022/06/25 10:53:24;;;;;;;0.00;0.00;;;28.30;99.90;;;;;;4963393;28;20615;-78
2022/06/25 10:56:23;;;;;;;0.00;0.00;;;28.40;99.90;;;;;;4964094;28;21087;-78
2022/06/25 10:58:52;;;;;;;0.00;0.00;;;28.40;99.90;;;;;;4963789;28;20444;-78
2022/06/25 11:01:34;;;;;;;0.00;0.00;;;28.40;99.90;;;;;;4963858;28;20473;-78
2022/06/25 11:04:07;;;;;;;0.00;0.00;;;28.50;99.90;;;;;;4963944;28;20538;-78
2022/06/25 11:06:40;;;;;;;0.00;0.00;;;28.70;99.90;;;;;;4963819;28;20487;-78
2022/06/25 11:09:15;;;;;;;0.00;0.00;;;28.80;99.90;;;;;;4964169;28;20436;-80
2022/06/25 11:11:47;;;;;;;0.00;0.00;;;28.90;99.90;;;;;;4964130;28;20632;-78
2022/06/25 11:14:22;;;;;;;0.00;0.00;;;29.00;99.90;;;;;;4964633;28;20959;-77
2022/06/25 11:16:50;;;;;;;0.00;0.00;;;29.10;99.90;;;;;;4963725;28;21057;-77
2022/06/25 11:19:19;;;;;;;0.00;0.00;;;29.20;99.90;;;;;;4964527;28;20482;-79
2022/06/25 11:21:48;;;;;;;0.00;0.00;;;29.10;99.90;;;;;;4963108;28;20558;-78
2022/06/25 11:24:19;;;;;;;0.00;0.00;;;29.20;99.90;;;;;;4966649;28;20461;-79
2022/06/25 11:29:39;;;;;;;0.00;0.00;;;29.10;99.90;;;;;;4964344;28;21004;-79
2022/06/25 11:32:08;;;;;;;0.00;0.00;;;29.10;99.90;;;;;;4961031;28;20563;-77
2022/06/25 11:34:36;;;;;;;0.00;0.00;;;29.20;99.90;;;;;;4964774;28;20462;-78
2022/06/25 11:37:10;;;;;;;0.00;0.00;;;29.20;99.90;;;;;;4968810;28;20548;-80
2022/06/25 11:39:40;;;;;;;0.00;0.00;;;29.20;99.90;;;;;;4966175;28;20491;-80
2022/06/25 11:42:11;;;;;;;0.00;0.00;;;29.20;99.90;;;;;;4965351;28;20518;-79
2022/06/25 11:44:41;;;;;;;0.00;0.00;;;29.20;99.90;;;;;;4965803;28;20445;-79
2022/06/25 11:47:11;;;;;;;0.00;0.00;;;29.30;99.90;;;;;;4964304;28;20471;-79
2022/06/25 11:49:41;;;;;;;0.00;0.00;;;29.40;99.90;;;;;;4963849;28;20459;-78
2022/06/25 11:52:11;;;;;;;0.00;0.00;;;29.50;99.90;;;;;;4966927;28;20471;-78
2022/06/25 11:54:40;;;;;;;0.00;0.00;;;29.60;99.90;;;;;;4963102;28;20408;-78
2022/06/25 11:57:12;;;;;;;0.00;0.00;;;29.60;99.90;;;;;;4960923;28;20482;-79
2022/06/25 11:59:40;;;;;;;0.00;0.00;;;29.70;99.90;;;;;;4962255;28;20487;-78
2022/06/25 12:02:11;;;;;;;0.00;0.00;;;29.70;99.90;;;;;;4962735;28;21124;-78
2022/06/25 12:04:48;;;;;;;0.00;0.00;;;29.70;99.90;;;;;;4966398;28;20514;-78
2022/06/25 12:07:18;;;;;;;0.00;0.00;;;29.80;99.90;;;;;;4965985;28;20463;-78
2022/06/25 12:09:46;;;;;;;0.00;0.00;;;29.80;99.90;;;;;;4963796;28;20975;-78
2022/06/25 12:12:17;;;;;;;0.00;0.00;;;29.80;99.90;;;;;;4963150;28;20450;-79
2022/06/25 12:14:46;;;;;;;0.00;0.00;;;29.80;99.90;;;;;;4963099;28;20447;-78
2022/06/25 12:17:14;;;;;;;0.00;0.00;;;29.80;99.90;;;;;;4963771;28;20542;-78
2022/06/25 12:19:48;;;;;;;0.00;0.00;;;29.70;99.90;;;;;;4963112;28;20470;-78
2022/06/25 12:22:23;;;;;;;0.00;0.00;;;29.60;99.90;;;;;;4961666;28;21132;-78
2022/06/25 12:24:52;;;;;;;0.00;0.00;;;29.50;99.90;;;;;;4962866;28;20454;-78
2022/06/25 12:27:21;;;;;;;0.00;0.00;;;29.50;99.90;;;;;;4962329;28;20466;-78
2022/06/25 12:29:52;;;;;;;0.00;0.00;;;29.60;99.90;;;;;;4962232;28;20447;-78
2022/06/25 12:32:20;;;;;;;0.00;0.00;;;29.60;99.90;;;;;;4962083;28;20456;-78
2022/06/25 12:34:50;;;;;;;0.00;0.00;;;29.70;99.90;;;;;;4960983;28;20463;-78
2022/06/25 12:37:28;;;;;;;0.00;0.00;;;29.60;99.90;;;;;;4961183;28;20459;-78
2022/06/25 12:39:57;;;;;;;0.00;0.00;;;29.60;99.90;;;;;;4961464;28;20486;-76
2022/06/25 12:42:28;;;;;;;0.00;0.00;;;29.60;99.90;;;;;;4959388;28;20454;-76
2022/06/25 12:45:02;;;;;;;0.00;0.00;;;29.70;99.90;;;;;;4960905;28;21071;-76
2022/06/25 12:47:41;;;;;;;0.00;0.00;;;29.80;99.90;;;;;;4967917;28;20530;-76
2022/06/25 12:50:23;;;;;;;0.00;0.00;;;29.90;99.90;;;;;;4969652;28;20442;-76
2022/06/25 12:52:52;;;;;;;0.00;0.00;;;30.00;99.90;;;;;;4969517;28;20658;-77
2022/06/25 12:55:21;;;;;;;0.00;0.00;;;30.30;99.90;;;;;;4964196;28;20550;-79
2022/06/25 12:57:55;;;;;;;0.00;0.00;;;30.40;99.90;;;;;;4960947;28;20505;-75
2022/06/25 13:00:25;;;;;;;0.00;0.00;;;30.60;99.90;;;;;;4962934;28;20562;-76
2022/06/25 13:02:54;;;;;;;0.00;0.00;;;30.70;99.90;;;;;;4967818;28;20528;-76
2022/06/25 13:05:24;;;;;;;0.00;0.00;;;30.70;99.90;;;;;;4974085;28;20462;-78
2022/06/25 13:07:52;;;;;;;0.00;0.00;;;30.80;99.90;;;;;;4971045;28;20451;-76
2022/06/25 13:10:20;;;;;;;0.00;0.00;;;30.80;99.90;;;;;;4971916;28;20734;-75
2022/06/25 13:12:53;;;;;;;0.00;0.00;;;30.80;99.90;;;;;;4969877;28;20471;-76
2022/06/25 13:15:26;;;;;;;0.00;0.00;;;30.80;99.90;;;;;;4968790;28;20444;-76
2022/06/25 13:17:54;;;;;;;0.00;0.00;;;30.80;99.50;;;;;;4969201;28;21049;-77
2022/06/25 13:20:22;;;;;;;0.00;0.00;;;31.00;99.60;;;;;;4970685;28;20474;-77
2022/06/25 13:22:51;;;;;;;0.00;0.00;;;31.20;99.60;;;;;;4969277;28;20510;-77